Don Miguel Hidalgo y Costilla International Airport

MMGL · Jalisco, Mexico

METAR history MMGL · Don Miguel Hidalgo y Costilla International Airport

Below you see METARs of the last few days. Select a year to browse through older METARs, from the year 2007 onwards.

December 7, 2022

Time Code Weather Temp. Visibility Ceiling Wind METAR/SPECI
22:46
V
18 °C 8 mi - Var 000° 0 kt METAR MMGL 080446Z 00000KT 8SM SKC 18/11 A3027
22:46
V
18 °C 8 mi - Var 000° 0 kt METAR MMGL 080446Z 00000KT 8SM SKC 18/11 A3027
21:45
V
19 °C 8 mi - 230° 230° 3 kt METAR MMGL 080345Z 23003KT 8SM FEW090 19/09 A3026 RMK 8/030
20:43
V
20 °C 8 mi 9,000 ft 260° 260° 8 kt METAR MMGL 080243Z 26008KT 8SM BKN090 20/08 A3023 RMK SLP152 52003 916 8/030
19:52
V
18 °C 10 mi - Var 000° 0 kt METAR MMGL 080152Z 00000KT 10SM SKC 18/06 A3020
18:48
V
21 °C 10 mi - 210° 210° 6 kt METAR MMGL 080048Z 21006KT 10SM FEW300 21/05 A3020 RMK 8/002
17:44
V
26 °C 8 mi - Var 000° 0 kt METAR MMGL 072344Z 00000KT 8SM FEW030 26/03 A3018 RMK SLP124 57001 923 8/400 CI
16:51
V
28 °C 8 mi - 310° 310° 3 kt METAR MMGL 072251Z 31003KT 8SM SKC 28/04 A3018 RMK SC
15:49
V
28 °C 7 mi - 100° 100° 3 kt METAR MMGL 072149Z 10003KT 7SM SKC 28/04 A3018 RMK HZY
14:48
V
27 °C 7 mi - Var 000° 0 kt METAR MMGL 072048Z 00000KT 7SM SKC 27/05 A3020 RMK SLP119 57023 925 HZY
13:45
V
26 °C 7 mi - 010° 010° 3 kt METAR MMGL 071945Z 01003KT 7SM SKC 26/07 A3022 RMK HZY
12:47
V
25 °C 5 mi - 360° 360° 6 kt METAR MMGL 071847Z 36006KT 5SM SKC 25/09 A3026 RMK HZY
11:50
V
24 °C 5 mi - Var 000° 0 kt METAR MMGL 071750Z 00000KT 5SM SKC 24/09 A3028 RMK SLP147 57008 901 HZY
10:42
V
22 °C 5 mi - 010° 010° 3 kt METAR MMGL 071642Z 01003KT 5SM SKC 22/11 A3031 RMK HZY
09:49
V
20 °C 5 mi - 360° 360° 4 kt METAR MMGL 071549Z 36004KT 5SM SKC 20/11 A3032 RMK HZY
08:49
V
16 °C 6 mi - 090° 090° 3 kt METAR MMGL 071449Z 09003KT 6SM SKC 16/10 A3031 RMK SLP171 52017 917 HZY
07:47
V
11 °C 6 mi - 120° 120° 3 kt METAR MMGL 071347Z 12003KT 6SM SKC 11/09 A3028 RMK HZY
06:49
V
10 °C 7 mi - Var 000° 0 kt METAR MMGL 071249Z 00000KT 7SM SKC 10/08 A3027 RMK HZY
05:49
V
12 °C 10 mi - Var 000° 0 kt METAR MMGL 071149Z 00000KT 10SM SKC 12/09 A3025 RMK SLP148 52005 921
05:12
V
12 °C 10 mi - Var 000° 0 kt METAR MMGL 071112Z RTD 00000KT 10SM SKC 12/10 A3023
03:41
V
13 °C 10 mi - 180° 180° 4 kt METAR MMGL 070941Z 18004KT 10SM SKC 13/10 A3023
02:41
V
13 °C 10 mi - Var 000° 0 kt METAR MMGL 070841Z 00000KT 10SM SKC 13/10 A3023 RMK SLP130 54000 919
01:40
V
14 °C 10 mi - Var 000° 0 kt METAR MMGL 070740Z 00000KT 10SM SKC 14/09 A3024
00:40
V
15 °C 10 mi - Var 000° 0 kt METAR MMGL 070640Z 00000KT 10SM SKC 15/09 A3023

December 6, 2022

Time Code Weather Temp. Visibility Ceiling Wind METAR/SPECI
23:44
V
16 °C 10 mi - 320° 320° 4 kt METAR MMGL 070544Z 32004KT 10SM SKC 16/10 A3023 RMK SLP130 52013 919
22:40
V
16 °C 10 mi - Var 000° 0 kt METAR MMGL 070440Z 00000KT 10SM SKC 16/09 A3022
21:42
V
18 °C 10 mi - Var 000° 0 kt METAR MMGL 070342Z 00000KT 10SM SKC 18/09 A3020 RMK SC
20:46
V
19 °C 10 mi - 260° 260° 4 kt METAR MMGL 070246Z 26004KT 10SM SKC 19/07 A3019 RMK SLP133 52020 914 SC
19:54
V
17 °C 10 mi - 200° 200° 4 kt METAR MMGL 070154Z 20004KT 10SM SKC 17/07 A3016
18:52
V
19 °C 10 mi - 230° 230° 3 kt METAR MMGL 070052Z 23003KT 10SM FEW030 19/06 A3014 RMK 8/500 CI
17:50
V
24 °C 10 mi - 170° 170° 3 kt METAR MMGL 062350Z 17003KT 10SM FEW030 24/06 A3012 RMK SLP105 57002 911 8/400 CI
16:50
V
26 °C 10 mi - 280° 280° 4 kt METAR MMGL 062250Z 28004KT 10SM SCT030 26/04 A3011 RMK 8/400 DSNT CB S
15:49
V
27 °C 10 mi - Var 000° 0 kt METAR MMGL 062149Z 00000KT 10SM FEW030 27/04 A3011 RMK 8/100
14:51
V
27 °C 10 mi - 350° 350° 5 kt METAR MMGL 062051Z 35005KT 10SM FEW030 27/03 A3012 RMK SLP089 57040 957 8/100 DSNT CB SE
13:42
V
27 °C 8 mi - Var 000° 0 kt METAR MMGL 061942Z 00000KT 8SM SKC 27/05 A3015 RMK ISOL CU
12:44
V
26 °C 8 mi - Var 000° 0 kt METAR MMGL 061844Z 00000KT 8SM SKC 26/06 A3019 RMK ISOL CU
11:52
V
24 °C 7 mi - 190° 190° 4 kt METAR MMGL 061752Z 19004KT 7SM SKC 24/08 A3022 RMK SLP144 51004 904 HZY VIS WNW 5NM CU S
11:00
V
23 °C 7 mi - Var 000° 0 kt METAR MMGL 061700Z RTD 00000KT 7SM SKC 23/10 A3025 RMK HZY
09:40
V
19 °C 7 mi - Var 000° 0 kt METAR MMGL 061540Z 00000KT 7SM SKC 19/10 A3026 RMK HZY VIS WNW 5NM
08:47
V
16 °C 7 mi - 110° 110° 3 kt METAR MMGL 061447Z 11003KT 7SM SKC 16/09 A3023 RMK SLP166 51021 995 HZY
07:49
V
10 °C 7 mi - Var 000° 0 kt METAR MMGL 061349Z 00000KT 7SM SKC 10/07 A3021 RMK HZY
06:47
V
10 °C 8 mi - Var 000° 0 kt METAR MMGL 061247Z 00000KT 8SM SKC 10/08 A3019
05:42
V
11 °C 8 mi - Var 000° 0 kt METAR MMGL 061142Z 00000KT 8SM SKC 11/08 A3016 RMK SLP120 52003 962
04:42
V
11 °C 8 mi - Var 000° 0 kt METAR MMGL 061042Z 00000KT 8SM SKC 11/08 A3015
03:40
V
12 °C 8 mi - Var 000° 0 kt METAR MMGL 060940Z 00000KT 8SM SKC 12/08 A3015
02:40
V
13 °C 8 mi - Var 000° 0 kt METAR MMGL 060840Z 00000KT 8SM SKC 13/08 A3016 RMK SLP108 54000 958
01:40
V
14 °C 8 mi - Var 000° 0 kt METAR MMGL 060740Z 00000KT 8SM SKC 14/08 A3016
00:40
V
16 °C 8 mi - Var 000° 0 kt METAR MMGL 060640Z 00000KT 8SM SKC 16/08 A3016

December 5, 2022

Time Code Weather Temp. Visibility Ceiling Wind METAR/SPECI
23:47
V
15 °C 8 mi - Var 000° 0 kt METAR MMGL 060547Z 00000KT 8SM SKC 15/08 A3016 RMK SLP111 52008 961
22:40
V
16 °C 8 mi - Var 000° 0 kt METAR MMGL 060440Z 00000KT 8SM SKC 16/07 A3016
21:42
V
16 °C 8 mi - Var 000° 0 kt METAR MMGL 060342Z 00000KT 8SM SKC 16/07 A3016
20:44
V
17 °C 10 mi - 190° 190° 3 kt METAR MMGL 060244Z 19003KT 10SM SKC 17/07 A3014 RMK SLP124 52017 981
19:42
V
19 °C 10 mi - 200° 200° 4 kt METAR MMGL 060142Z 20004KT 10SM SKC 19/07 A3013
18:41
V
22 °C 10 mi - 280° 280° 5 kt METAR MMGL 060041Z 28005KT 10SM SKC 22/06 A3010
17:44
V
26 °C 10 mi - Var 000° 0 kt METAR MMGL 052344Z 00000KT 10SM FEW025 26/04 A3008 RMK SLP096 57016 981 8/100 HZY CI
16:41
V
26 °C 10 mi - Var 000° 0 kt METAR MMGL 052241Z 00000KT 10SM FEW025 26/04 A3007 RMK 8/100 HZY
15:44
V
27 °C 10 mi - 050° 050° 6 kt METAR MMGL 052144Z 05006KT 10SM SKC 27/05 A3008 RMK ISOL CU
14:40
V
27 °C 8 mi - 320° 320° 5 kt METAR MMGL 052040Z 32005KT 8SM SKC 27/06 A3011 RMK SLP109 57033 973 ISOL CU
13:40
V
25 °C 8 mi - Var 000° 0 kt METAR MMGL 051940Z 00000KT 8SM SKC 25/06 A3014 RMK ISOL CU
12:40
V
26 °C 8 mi - 120° 120° 5 kt METAR MMGL 051840Z 12005KT 8SM SKC 26/07 A3019
11:40
V
24 °C 7 mi - 100° 100° 5 kt METAR MMGL 051740Z 10005KT 7SM SKC 24/07 A3022 RMK SLP142 57005 980 HZY
10:41
V
21 °C 7 mi - 110° 110° 6 kt METAR MMGL 051641Z 11006KT 7SM SKC 21/06 A3026 RMK HZY
09:49
V
18 °C 7 mi - 100° 100° 5 kt METAR MMGL 051549Z 10005KT 7SM SKC 18/05 A3026 RMK HZY
08:43
V
15 °C 6 mi - Var 000° 0 kt METAR MMGL 051443Z 00000KT 6SM SKC 15/05 A3026 RMK SLP169 51014 989 HZY
07:42
V
8 °C 6 mi - Var 000° 0 kt METAR MMGL 051342Z 00000KT 6SM SKC 08/05 A3024 RMK HZY
06:40
V
6 °C 8 mi - Var 000° 0 kt METAR MMGL 051240Z 00000KT 8SM SKC 06/03 A3022
04:40
V
8 °C 8 mi - Var 000° 0 kt METAR MMGL 051040Z 00000KT 8SM SKC 08/04 A3020
03:40
V
9 °C 8 mi - Var 000° 0 kt METAR MMGL 050940Z 00000KT 8SM SKC 09/05 A3021

We and third parties follow your internet behavior on our website with cookies. If you continue, we assume you agree with our cookie policy.